createdAt,value
2022-07-31T00:02:08.105Z,16.87
2022-07-31T00:04:34.936Z,16.95
2022-07-31T00:07:01.820Z,16.90
2022-07-31T00:09:54.128Z,16.90
2022-07-31T00:12:17.359Z,16.90
2022-07-31T00:14:44.276Z,16.85
2022-07-31T00:17:10.964Z,16.79
2022-07-31T00:19:37.563Z,16.70
2022-07-31T00:22:04.205Z,16.69
2022-07-31T00:24:30.872Z,16.59
2022-07-31T00:26:57.533Z,16.49
2022-07-31T00:29:24.280Z,16.41
2022-07-31T00:31:51.115Z,16.27
2022-07-31T00:34:18.116Z,16.31
2022-07-31T00:36:44.783Z,16.29
2022-07-31T00:39:11.389Z,16.22
2022-07-31T00:41:43.488Z,16.11
2022-07-31T00:44:12.454Z,16.01
2022-07-31T00:46:40.509Z,15.82
2022-07-31T00:49:10.182Z,15.80
2022-07-31T00:51:38.184Z,15.79
2022-07-31T00:54:06.118Z,15.84
2022-07-31T00:56:32.769Z,15.85
2022-07-31T00:58:59.996Z,15.86
2022-07-31T01:01:27.635Z,15.70
2022-07-31T01:03:54.829Z,15.74
2022-07-31T01:06:21.830Z,15.82
2022-07-31T01:08:49.027Z,15.85
2022-07-31T01:11:38.968Z,15.88
2022-07-31T01:14:09.294Z,15.84
2022-07-31T01:16:40.579Z,15.75
2022-07-31T01:19:47.126Z,15.66
2022-07-31T01:22:35.250Z,15.44
2022-07-31T01:25:23.899Z,15.43
2022-07-31T01:28:22.286Z,15.28
2022-07-31T01:31:10.646Z,15.17
2022-07-31T01:34:09.016Z,15.07
2022-07-31T01:36:39.586Z,14.99
2022-07-31T01:39:06.452Z,14.96
2022-07-31T01:41:40.336Z,14.89
2022-07-31T01:44:13.661Z,14.91
2022-07-31T01:46:43.717Z,14.92
2022-07-31T01:49:12.419Z,14.88
2022-07-31T01:51:43.809Z,14.79
2022-07-31T01:54:11.607Z,14.77
2022-07-31T01:56:40.352Z,14.73
2022-07-31T01:59:15.553Z,14.72
2022-07-31T02:02:06.521Z,14.76
2022-07-31T02:04:37.998Z,14.77
2022-07-31T02:07:08.097Z,14.75
2022-07-31T02:09:35.972Z,14.71
2022-07-31T02:12:03.600Z,14.75
2022-07-31T02:14:36.397Z,14.82
2022-07-31T02:17:04.034Z,14.87
2022-07-31T02:20:00.794Z,14.86
2022-07-31T02:22:29.389Z,14.82
2022-07-31T02:24:56.142Z,14.83
2022-07-31T02:27:53.562Z,14.81
2022-07-31T02:30:13.439Z,14.84
2022-07-31T02:32:41.810Z,14.83
2022-07-31T02:35:09.749Z,14.85
2022-07-31T02:37:38.352Z,14.85
2022-07-31T02:40:06.584Z,14.96
2022-07-31T02:42:34.217Z,14.99
2022-07-31T02:45:02.506Z,15.05
2022-07-31T02:47:29.715Z,15.06
2022-07-31T02:49:59.469Z,15.12
2022-07-31T02:52:26.585Z,15.21
2022-07-31T02:54:53.918Z,15.31
2022-07-31T02:57:20.691Z,15.33
2022-07-31T02:59:47.635Z,15.32
2022-07-31T03:02:14.913Z,15.26
2022-07-31T03:04:44.241Z,15.29
2022-07-31T03:07:10.932Z,15.33
2022-07-31T03:09:37.715Z,15.21
2022-07-31T03:12:25.271Z,15.20
2022-07-31T03:14:54.496Z,15.24
2022-07-31T03:17:23.822Z,15.26
2022-07-31T03:20:06.566Z,15.26
2022-07-31T03:22:33.724Z,15.26
2022-07-31T03:25:01.842Z,15.24
2022-07-31T03:27:30.081Z,15.30
2022-07-31T03:29:57.099Z,15.26
2022-07-31T03:32:23.873Z,15.23
2022-07-31T03:34:50.467Z,15.30
2022-07-31T03:37:17.138Z,15.34
2022-07-31T03:39:43.802Z,15.37
2022-07-31T03:42:18.691Z,15.43
2022-07-31T03:44:47.916Z,15.41
2022-07-31T03:47:16.362Z,15.36
2022-07-31T03:49:43.934Z,15.34
2022-07-31T03:52:12.574Z,15.38
2022-07-31T03:54:40.325Z,15.41
2022-07-31T03:57:22.029Z,15.42
2022-07-31T03:59:57.662Z,15.38
2022-07-31T04:02:28.965Z,15.39
2022-07-31T04:05:09.520Z,15.41
2022-07-31T04:07:36.842Z,15.48
2022-07-31T04:10:03.852Z,15.65
2022-07-31T04:12:30.573Z,15.70
2022-07-31T04:14:57.244Z,15.69
2022-07-31T04:17:23.911Z,15.77
2022-07-31T04:19:50.585Z,15.80
2022-07-31T04:22:17.307Z,15.79
2022-07-31T04:24:44.136Z,15.83
2022-07-31T04:27:31.587Z,15.86
2022-07-31T04:29:58.385Z,15.84
2022-07-31T04:32:25.496Z,15.88
2022-07-31T04:34:54.775Z,15.90
2022-07-31T04:37:21.607Z,15.89
2022-07-31T04:39:48.398Z,15.90
2022-07-31T04:42:15.572Z,15.92
2022-07-31T04:44:42.191Z,15.91
2022-07-31T04:47:09.032Z,15.95
2022-07-31T04:49:41.563Z,15.93
2022-07-31T04:52:08.818Z,15.90
2022-07-31T04:54:38.559Z,15.86
2022-07-31T04:57:07.417Z,15.79
2022-07-31T04:59:59.808Z,15.78
2022-07-31T05:02:21.404Z,15.75
2022-07-31T05:04:56.588Z,15.75
2022-07-31T05:07:27.851Z,15.75
2022-07-31T05:09:56.911Z,15.74
2022-07-31T05:12:23.837Z,15.76
2022-07-31T05:14:50.529Z,15.81
2022-07-31T05:17:17.246Z,15.89
2022-07-31T05:20:13.227Z,16.02
2022-07-31T05:23:02.758Z,16.20
2022-07-31T05:25:53.411Z,16.38
2022-07-31T05:28:20.056Z,16.51
2022-07-31T05:30:57.643Z,16.69
2022-07-31T05:33:24.396Z,16.85
2022-07-31T05:35:51.052Z,17.02
2022-07-31T05:38:17.688Z,17.18
2022-07-31T05:41:04.954Z,17.26
2022-07-31T05:43:42.632Z,17.33
2022-07-31T05:46:17.266Z,17.41
2022-07-31T05:48:44.941Z,17.54
2022-07-31T05:51:13.247Z,17.60
2022-07-31T05:53:41.184Z,17.69
2022-07-31T05:56:31.228Z,17.84
2022-07-31T05:58:59.566Z,17.89
2022-07-31T06:01:26.253Z,17.95
2022-07-31T06:03:53.296Z,18.02
2022-07-31T06:06:22.898Z,18.02
2022-07-31T06:08:49.757Z,18.13
2022-07-31T06:11:16.405Z,18.13
2022-07-31T06:13:43.352Z,18.19
2022-07-31T06:16:26.728Z,18.26
2022-07-31T06:18:53.358Z,18.36
2022-07-31T06:23:46.042Z,18.54
2022-07-31T06:26:21.558Z,18.59
2022-07-31T06:28:51.066Z,18.60
2022-07-31T06:31:20.676Z,18.64
2022-07-31T06:33:49.483Z,18.74
2022-07-31T06:36:18.094Z,18.79
2022-07-31T06:38:55.963Z,18.83
2022-07-31T06:41:47.592Z,18.85
2022-07-31T06:44:46.262Z,18.93
2022-07-31T06:47:46.058Z,18.93
2022-07-31T06:50:35.805Z,19.03
2022-07-31T06:53:23.559Z,19.07
2022-07-31T06:55:50.627Z,19.08
2022-07-31T06:58:17.353Z,19.01
2022-07-31T07:00:44.648Z,19.04
2022-07-31T07:03:11.319Z,19.04
2022-07-31T07:05:37.961Z,19.00
2022-07-31T07:08:04.915Z,19.11
2022-07-31T07:10:33.033Z,19.15
2022-07-31T07:12:59.676Z,19.20
2022-07-31T07:15:29.356Z,19.37
2022-07-31T07:17:56.088Z,19.42
2022-07-31T07:20:33.850Z,19.44
2022-07-31T07:23:00.721Z,19.47
2022-07-31T07:25:36.733Z,19.44
2022-07-31T07:28:03.719Z,19.41
2022-07-31T07:30:30.770Z,19.54
2022-07-31T07:33:00.121Z,19.55
2022-07-31T07:35:32.038Z,19.71
2022-07-31T07:38:03.025Z,19.88
2022-07-31T07:40:30.238Z,19.82
2022-07-31T07:43:01.202Z,19.94
2022-07-31T07:45:30.074Z,20.07
2022-07-31T07:48:06.805Z,20.15
2022-07-31T07:50:56.172Z,20.35
2022-07-31T07:53:41.813Z,20.37
2022-07-31T07:56:46.326Z,20.30
2022-07-31T07:59:22.353Z,20.36
2022-07-31T08:02:16.205Z,20.38
2022-07-31T08:04:47.291Z,20.70
2022-07-31T08:07:14.345Z,20.99
2022-07-31T08:09:41.066Z,21.55
2022-07-31T08:12:40.697Z,22.20
2022-07-31T08:15:08.059Z,22.14
2022-07-31T08:17:53.361Z,21.98
2022-07-31T08:20:21.833Z,21.90
2022-07-31T08:22:49.766Z,22.14
2022-07-31T08:25:16.542Z,22.54
2022-07-31T08:27:47.847Z,22.76
2022-07-31T08:30:16.105Z,23.09
2022-07-31T08:32:42.750Z,23.27
2022-07-31T08:35:31.746Z,23.71
2022-07-31T08:38:03.308Z,24.03
2022-07-31T08:40:43.235Z,24.06
2022-07-31T08:44:00.722Z,24.16
2022-07-31T08:46:02.816Z,24.34
2022-07-31T08:48:34.409Z,24.38
2022-07-31T08:51:03.668Z,24.56
2022-07-31T08:54:07.667Z,24.63
2022-07-31T08:56:35.455Z,24.55
2022-07-31T08:59:03.555Z,24.69
2022-07-31T09:01:32.875Z,24.77
2022-07-31T09:04:00.035Z,25.04
2022-07-31T09:06:26.950Z,25.39
2022-07-31T09:08:55.897Z,25.59
2022-07-31T09:11:24.101Z,25.81
2022-07-31T09:14:14.697Z,26.04
2022-07-31T09:16:47.191Z,26.32
2022-07-31T09:19:52.822Z,26.32
2022-07-31T09:22:18.625Z,25.90
2022-07-31T09:24:45.818Z,26.42
2022-07-31T09:27:14.503Z,26.36
2022-07-31T09:29:44.975Z,26.53
2022-07-31T09:32:25.558Z,26.26
2022-07-31T09:35:15.410Z,26.14
2022-07-31T09:37:46.991Z,25.78
2022-07-31T09:40:40.003Z,26.53
2022-07-31T09:44:10.126Z,26.97
2022-07-31T09:46:48.335Z,27.05
2022-07-31T09:49:15.288Z,27.12
2022-07-31T09:51:49.555Z,27.30
2022-07-31T09:54:24.814Z,27.31
2022-07-31T09:57:12.388Z,27.59
2022-07-31T09:59:44.926Z,27.64
2022-07-31T10:02:14.432Z,27.91
2022-07-31T10:04:43.032Z,28.19
2022-07-31T10:07:31.434Z,28.59
2022-07-31T10:10:22.255Z,27.95
2022-07-31T10:13:20.715Z,28.10
2022-07-31T10:15:50.489Z,27.95
2022-07-31T10:18:42.787Z,27.68
2022-07-31T10:21:24.693Z,27.61
2022-07-31T10:24:02.814Z,27.62
2022-07-31T10:26:50.749Z,28.27
2022-07-31T10:29:17.941Z,28.48
2022-07-31T10:31:46.631Z,28.40
2022-07-31T10:34:15.282Z,28.54
2022-07-31T10:37:11.121Z,28.71
2022-07-31T10:39:59.494Z,29.09
2022-07-31T10:42:43.077Z,29.05
2022-07-31T10:45:14.053Z,29.04
2022-07-31T10:48:03.984Z,28.78
2022-07-31T10:51:09.558Z,28.69
2022-07-31T10:54:14.135Z,28.43
2022-07-31T10:56:59.313Z,28.14
2022-07-31T10:59:44.863Z,27.94
2022-07-31T11:02:14.563Z,28.23
2022-07-31T11:05:07.665Z,28.52
2022-07-31T11:08:04.717Z,28.03
2022-07-31T11:10:55.822Z,28.32
2022-07-31T11:13:57.878Z,28.74
2022-07-31T11:17:00.023Z,28.80
2022-07-31T11:19:53.039Z,29.05
2022-07-31T11:22:30.997Z,29.00
2022-07-31T11:24:58.981Z,28.62
2022-07-31T11:27:32.923Z,28.88
2022-07-31T11:30:12.436Z,28.41
2022-07-31T11:32:40.422Z,28.60
2022-07-31T11:35:07.617Z,28.37
2022-07-31T11:37:46.199Z,28.60
2022-07-31T11:40:16.070Z,28.83
2022-07-31T11:42:46.227Z,28.67
2022-07-31T11:45:15.217Z,28.92
2022-07-31T11:48:10.777Z,28.83
2022-07-31T11:50:42.600Z,27.90
2022-07-31T11:53:09.477Z,27.58
2022-07-31T11:56:08.408Z,27.93
2022-07-31T11:58:36.005Z,27.82
2022-07-31T12:01:04.759Z,28.13
2022-07-31T12:03:36.392Z,28.94
2022-07-31T12:06:05.074Z,28.53
2022-07-31T12:08:32.455Z,28.09
2022-07-31T12:11:00.294Z,27.80
2022-07-31T12:13:28.084Z,27.55
2022-07-31T12:15:54.613Z,27.38
2022-07-31T12:18:21.772Z,27.23
2022-07-31T12:20:56.016Z,27.07
2022-07-31T12:23:40.950Z,27.14
2022-07-31T12:26:10.628Z,27.44
2022-07-31T12:28:37.577Z,28.30
2022-07-31T12:31:04.566Z,30.05
2022-07-31T12:33:41.867Z,31.96
2022-07-31T12:36:13.626Z,33.40
2022-07-31T12:38:45.196Z,33.42
2022-07-31T12:41:15.356Z,33.33
2022-07-31T12:43:50.076Z,33.97
2022-07-31T12:46:21.093Z,32.88
2022-07-31T12:48:47.843Z,33.95
2022-07-31T12:51:14.497Z,34.13
2022-07-31T12:53:41.097Z,34.46
2022-07-31T12:56:11.863Z,34.81
2022-07-31T12:58:38.490Z,35.03
2022-07-31T13:01:05.138Z,35.40
2022-07-31T13:03:46.032Z,35.21
2022-07-31T13:06:13.921Z,35.29
2022-07-31T13:08:40.748Z,34.88
2022-07-31T13:11:07.397Z,35.19
2022-07-31T13:13:34.023Z,35.32
2022-07-31T13:16:00.733Z,35.43
2022-07-31T13:18:27.348Z,35.50
2022-07-31T13:20:54.063Z,34.90
2022-07-31T13:23:21.422Z,35.02
2022-07-31T13:25:48.141Z,35.70
2022-07-31T13:28:14.770Z,35.54
2022-07-31T13:30:41.663Z,35.67
2022-07-31T13:33:08.438Z,35.96
2022-07-31T13:35:35.119Z,35.83
2022-07-31T13:38:01.789Z,36.03
2022-07-31T13:40:47.413Z,35.96
2022-07-31T13:43:17.361Z,36.10
2022-07-31T13:45:44.200Z,36.20
2022-07-31T13:48:10.820Z,35.99
2022-07-31T13:50:40.334Z,36.39
2022-07-31T13:53:07.218Z,36.78
2022-07-31T13:55:33.914Z,37.08
2022-07-31T13:58:01.444Z,37.02
2022-07-31T14:00:29.693Z,35.57
2022-07-31T14:02:56.992Z,33.33
2022-07-31T14:05:26.596Z,32.80
2022-07-31T14:07:54.844Z,32.08
2022-07-31T14:10:22.106Z,31.09
2022-07-31T14:12:49.150Z,31.74
2022-07-31T14:15:18.102Z,31.91
2022-07-31T14:17:44.930Z,31.93
2022-07-31T14:20:12.475Z,33.02
2022-07-31T14:22:39.240Z,33.21
2022-07-31T14:25:06.007Z,32.03
2022-07-31T14:27:34.301Z,31.50
2022-07-31T14:30:01.646Z,31.09
2022-07-31T14:32:30.443Z,30.84
2022-07-31T14:34:57.072Z,31.72
2022-07-31T14:37:23.788Z,33.92
2022-07-31T14:39:50.468Z,35.07
2022-07-31T14:42:27.370Z,33.82
2022-07-31T14:44:55.078Z,32.75
2022-07-31T14:47:21.793Z,32.57
2022-07-31T14:50:09.628Z,31.81
2022-07-31T14:52:35.055Z,31.40
2022-07-31T14:55:01.892Z,30.55
2022-07-31T14:57:29.969Z,31.24
2022-07-31T14:59:56.662Z,30.92
2022-07-31T15:02:23.605Z,30.24
2022-07-31T15:04:51.660Z,29.57
2022-07-31T15:07:34.725Z,29.12
2022-07-31T15:10:07.794Z,29.82
2022-07-31T15:12:34.579Z,30.92
2022-07-31T15:15:01.374Z,32.33
2022-07-31T15:17:28.351Z,32.73
2022-07-31T15:19:55.208Z,31.80
2022-07-31T15:22:21.826Z,30.33
2022-07-31T15:24:50.048Z,30.24
2022-07-31T15:27:21.948Z,30.52
2022-07-31T15:30:00.728Z,30.82
2022-07-31T15:32:38.916Z,30.76
2022-07-31T15:35:08.223Z,30.08
2022-07-31T15:37:39.198Z,29.69
2022-07-31T15:40:09.975Z,29.15
2022-07-31T15:42:40.046Z,28.99
2022-07-31T15:45:08.960Z,29.37
2022-07-31T15:47:35.622Z,29.83
2022-07-31T15:50:02.821Z,29.79
2022-07-31T15:52:29.444Z,29.68
2022-07-31T15:54:56.204Z,29.31
2022-07-31T15:57:23.761Z,28.90
2022-07-31T15:59:51.580Z,28.71
2022-07-31T16:02:18.328Z,28.16
2022-07-31T16:04:52.985Z,28.18
2022-07-31T16:08:30.767Z,28.27
2022-07-31T16:10:15.415Z,28.52
2022-07-31T16:12:45.706Z,28.41
2022-07-31T16:15:30.601Z,28.53
2022-07-31T16:17:58.625Z,29.69
2022-07-31T16:20:26.803Z,31.72
2022-07-31T16:23:02.933Z,33.00
2022-07-31T16:25:31.924Z,31.96
2022-07-31T16:28:02.231Z,32.54
2022-07-31T16:30:28.867Z,31.36
2022-07-31T16:32:55.571Z,32.09
2022-07-31T16:35:22.384Z,32.19
2022-07-31T16:37:50.991Z,30.94
2022-07-31T16:40:29.190Z,30.91
2022-07-31T16:43:47.755Z,29.80
2022-07-31T16:45:54.406Z,30.42
2022-07-31T16:48:21.394Z,31.28
2022-07-31T16:50:53.275Z,31.80
2022-07-31T16:54:11.544Z,32.14
2022-07-31T16:56:08.009Z,31.39
2022-07-31T16:58:35.008Z,29.62
2022-07-31T17:01:04.047Z,28.44
2022-07-31T17:04:01.684Z,28.19
2022-07-31T17:06:17.709Z,27.32
2022-07-31T17:08:44.391Z,26.63
2022-07-31T17:11:11.196Z,26.79
2022-07-31T17:13:37.837Z,26.87
2022-07-31T17:16:04.818Z,26.56
2022-07-31T17:18:31.478Z,26.31
2022-07-31T17:20:59.672Z,26.16
2022-07-31T17:23:43.567Z,26.07
2022-07-31T17:26:21.165Z,26.25
2022-07-31T17:28:50.336Z,26.00
2022-07-31T17:31:17.926Z,25.78
2022-07-31T17:33:54.856Z,25.88
2022-07-31T17:36:26.705Z,26.03
2022-07-31T17:38:53.330Z,25.86
2022-07-31T17:41:25.098Z,25.81
2022-07-31T17:43:55.565Z,25.94
2022-07-31T17:46:29.965Z,25.74
2022-07-31T17:49:03.388Z,25.55
2022-07-31T17:51:30.048Z,25.73
2022-07-31T17:53:59.123Z,25.48
2022-07-31T17:56:26.782Z,25.43
2022-07-31T17:58:53.854Z,25.34
2022-07-31T18:01:23.331Z,25.30
2022-07-31T18:03:52.355Z,25.25
2022-07-31T18:06:18.970Z,25.23
2022-07-31T18:08:45.612Z,25.14
2022-07-31T18:11:12.203Z,25.04
2022-07-31T18:13:48.370Z,24.94
2022-07-31T18:16:18.572Z,24.80
2022-07-31T18:18:45.484Z,24.74
2022-07-31T18:21:12.398Z,24.65
2022-07-31T18:23:44.066Z,24.58
2022-07-31T18:26:14.524Z,24.56
2022-07-31T18:28:41.465Z,24.48
2022-07-31T18:31:31.510Z,24.37
2022-07-31T18:33:55.079Z,24.32
2022-07-31T18:36:21.702Z,24.32
2022-07-31T18:38:48.374Z,24.28
2022-07-31T18:41:15.041Z,24.25
2022-07-31T18:43:41.652Z,24.10
2022-07-31T18:46:08.238Z,24.07
2022-07-31T18:48:34.914Z,24.03
2022-07-31T18:51:04.751Z,24.02
2022-07-31T18:53:33.053Z,23.93
2022-07-31T18:55:59.979Z,23.91
2022-07-31T18:58:26.685Z,23.86
2022-07-31T19:00:55.146Z,23.77
2022-07-31T19:03:23.521Z,23.74
2022-07-31T19:05:52.782Z,23.69
2022-07-31T19:08:20.600Z,23.70
2022-07-31T19:10:49.343Z,23.61
2022-07-31T19:13:19.171Z,23.49
2022-07-31T19:15:51.594Z,23.49
2022-07-31T19:18:24.519Z,23.45
2022-07-31T19:21:19.123Z,23.31
2022-07-31T19:23:43.316Z,23.18
2022-07-31T19:26:09.943Z,23.12
2022-07-31T19:28:38.154Z,23.13
2022-07-31T19:31:05.504Z,23.06
2022-07-31T19:33:32.125Z,22.98
2022-07-31T19:36:02.185Z,22.89
2022-07-31T19:38:29.852Z,22.74
2022-07-31T19:40:56.491Z,22.68
2022-07-31T19:43:23.563Z,22.64
2022-07-31T19:46:09.740Z,22.59
2022-07-31T19:48:37.061Z,22.47
2022-07-31T19:51:04.656Z,22.58
2022-07-31T19:53:31.601Z,22.73
2022-07-31T19:56:00.325Z,22.69
2022-07-31T19:58:26.948Z,22.91
2022-07-31T20:00:53.570Z,22.85
2022-07-31T20:03:20.298Z,22.87
2022-07-31T20:05:46.963Z,22.92
2022-07-31T20:08:13.544Z,22.92
2022-07-31T20:10:40.159Z,22.89
2022-07-31T20:13:06.761Z,22.96
2022-07-31T20:15:52.132Z,22.94
2022-07-31T20:18:27.129Z,23.01
2022-07-31T20:21:14.922Z,23.05
2022-07-31T20:23:42.009Z,22.98
2022-07-31T20:26:11.503Z,22.96
2022-07-31T20:28:40.264Z,22.92
2022-07-31T20:31:08.465Z,22.82
2022-07-31T20:33:47.523Z,22.81
2022-07-31T20:36:25.782Z,22.81
2022-07-31T20:38:52.521Z,22.89
2022-07-31T20:41:19.220Z,22.85
2022-07-31T20:43:45.928Z,22.79
2022-07-31T20:46:12.652Z,22.79
2022-07-31T20:48:39.333Z,22.78
2022-07-31T20:51:09.050Z,22.76
2022-07-31T20:53:35.770Z,22.81
2022-07-31T20:56:02.514Z,22.74
2022-07-31T20:58:29.166Z,22.70
2022-07-31T21:00:55.935Z,22.78
2022-07-31T21:03:23.313Z,22.63
2022-07-31T21:05:50.163Z,22.57
2022-07-31T21:08:17.645Z,22.65
2022-07-31T21:10:44.515Z,22.62
2022-07-31T21:13:11.477Z,22.64
2022-07-31T21:15:43.737Z,22.77
2022-07-31T21:18:16.420Z,22.81
2022-07-31T21:20:50.110Z,22.76
2022-07-31T21:23:24.610Z,22.72
2022-07-31T21:25:52.740Z,22.69
2022-07-31T21:28:20.016Z,22.74
2022-07-31T21:30:47.163Z,22.67
2022-07-31T21:33:14.094Z,22.66
2022-07-31T21:35:41.359Z,22.66
2022-07-31T21:38:11.878Z,22.63
2022-07-31T21:40:40.244Z,22.62
2022-07-31T21:43:07.725Z,22.65
2022-07-31T21:45:50.491Z,22.63
2022-07-31T21:48:23.184Z,22.55
2022-07-31T21:50:50.137Z,22.62
2022-07-31T21:53:16.765Z,22.60
2022-07-31T21:55:43.939Z,22.57
2022-07-31T21:58:10.729Z,22.58
2022-07-31T22:00:37.829Z,22.53
2022-07-31T22:03:04.946Z,22.57
2022-07-31T22:05:50.643Z,22.57
2022-07-31T22:08:17.395Z,22.46
2022-07-31T22:10:44.297Z,22.50
2022-07-31T22:13:10.993Z,22.62
2022-07-31T22:15:59.439Z,22.45
2022-07-31T22:18:30.229Z,22.52
2022-07-31T22:20:57.402Z,22.49
2022-07-31T22:23:24.316Z,22.37
2022-07-31T22:25:50.961Z,22.30
2022-07-31T22:28:19.672Z,22.22
2022-07-31T22:30:46.909Z,22.16
2022-07-31T22:33:14.368Z,22.11
2022-07-31T22:35:41.115Z,22.09
2022-07-31T22:38:08.909Z,22.07
2022-07-31T22:40:35.682Z,21.96
2022-07-31T22:43:03.436Z,21.99
2022-07-31T22:45:30.407Z,21.90
2022-07-31T22:47:58.375Z,21.94
2022-07-31T22:50:25.450Z,21.81
2022-07-31T22:52:52.703Z,21.73
2022-07-31T22:55:19.556Z,21.79
2022-07-31T22:57:46.305Z,21.76
2022-07-31T23:00:14.680Z,21.71
2022-07-31T23:02:42.452Z,21.60
2022-07-31T23:05:10.177Z,21.65
2022-07-31T23:07:37.476Z,21.46
2022-07-31T23:10:06.165Z,21.42
2022-07-31T23:12:32.978Z,21.39
2022-07-31T23:14:59.687Z,21.32
2022-07-31T23:17:26.351Z,21.22
2022-07-31T23:19:53.976Z,21.13
2022-07-31T23:22:33.278Z,21.03
2022-07-31T23:25:10.167Z,20.98
2022-07-31T23:27:36.893Z,20.88
2022-07-31T23:30:04.311Z,20.87
2022-07-31T23:32:30.965Z,20.81
2022-07-31T23:34:57.869Z,20.77
2022-07-31T23:37:24.476Z,20.69
2022-07-31T23:39:51.057Z,20.62
2022-07-31T23:42:36.544Z,20.55
2022-07-31T23:45:04.285Z,20.54
2022-07-31T23:47:45.859Z,20.45
2022-07-31T23:50:14.100Z,20.35
2022-07-31T23:52:41.159Z,20.33
2022-07-31T23:55:08.088Z,20.32
2022-07-31T23:57:36.107Z,20.27
